Portada
METAR-TAF:

METAR-TAF

Aeropuertos :

Clarion Municipal Airport

Clarion, Iowa, Estados Unidos

latitud: 42-45N, longitud: 093-46W, altitud: 354 m

Observación

El informe se hizo hace 32 minutos, a las 07:35 UTC
Viento 7 kt del este-sureste
Temperatura 14°C
Humedad 63%
Presión 1025 hPa
Visibilidad: 16.1 km
Cielo nuboso a una altura de 5500 ft

METAR: KCAV 310735Z AUTO 11007KT 10SM BKN055 14/07 A3027 RMK A01

Hora: 03:07 (08:07 UTC)


TAF: falta

Observaciones y pronósticos meteorológicos de más de 4000 aeropuertos (mensajes METAR y TAF).

Los puntos amarillos y rojos representan las estaciones disponibles.

Ponga el ratón en el punto deseado para ver el nombre de la estación.

Haga clic para ver las observaciones y los pronósticos meteorológicos.

Para cambiar el mapa : haga clic en los botones verdes con una cruz de color negro para hacer un zoom, en el botón verde con un guión para alejar o en las flechas verdes para mapas adyacentes.


METAR-TAF: